• Join FlightAware (Why Join?)
  • Login
  • US Flag 
08:38PM EDT


 

Airport Tracker/Info


-or-


 

Live Flight TrackerFlight Track Log ✈ EJA221 ✈ 20-Jul-2013 ✈ KFOK - KHPN

Flight Track Log - Related Links

Times and Time Zones

All times are in EDT time to prevent confusion due to time zone crossing. See the EJA221 flight status page for this flight to view local times or setup timezone preferences in your user account.

Time Position Orientation Groundspeed Altitude Reporting Facility
EDT Latitude Longitude Course Direction KTS MPH feet Rate Location/Type
10:13AM 40.8667 -72.6833 310° West 202 232 2,800  Level New York TRACON
10:14AM 40.9167 -72.6833 360° North 210 242 4,800 600 Climbing New York TRACON
10:15AM 40.9833 -72.6833 360° North 227 261 4,000 -420 Descending New York TRACON
10:16AM 41.0167 -72.7500 304° West 189 217 4,000  Level New York TRACON
10:17AM 41.0333 -72.8000 294° West 185 213 4,000  Level New York TRACON
10:18AM 41.0667 -72.8667 304° West 189 217 4,000  Level New York TRACON
10:19AM 41.0301 -72.9277 310° West  Level FlightAware Approximate
10:19AM 41.0833 -72.9333 288° West 195 224 4,000  Level New York TRACON
10:20AM 41.1167 -73.0000 304° West 208 239 4,000  Level New York TRACON
10:21AM 41.1333 -73.0667 288° West 210 242 4,000  Level New York TRACON
10:22AM 41.1667 -73.1333 304° West 210 242 4,000  Level New York TRACON
10:23AM 41.1667 -73.2000 270° West 207 238 4,000  Level New York TRACON
10:24AM 41.1667 -73.2833 270° West 209 241 4,000  Level New York TRACON
10:25AM 41.1833 -73.3667 285° West 210 242 4,000 -120 Level New York TRACON
10:26AM 41.1833 -73.4333 270° West 188 216 3,800 -540 Descending New York TRACON
10:27AM 41.1667 -73.4833 246° West 196 226 3,000 -420 Descending New York TRACON
10:28AM 41.1167 -73.5167 207° Southwest 196 226 3,000  Level New York TRACON
10:29AM 41.0667 -73.5667 217° Southwest 199 229 3,000 -300 Level New York TRACON
10:30AM 41.0167 -73.6000 207° Southwest 197 227 2,400 -600 Descending New York TRACON
10:31AM 40.9833 -73.6500 229° Southwest 191 220 1,900 -660 Descending New York TRACON
10:32AM 41.0333 -73.6833 333° Northwest 165 190 1,100 -840 Descending New York TRACON
10:34AM 41.0667 -73.7000 236° Southwest  Level FlightAware Approximate
10:41AM 41.0669 -73.7076 236° Southwest  Level Estimated
10:42AM 41.0667 -73.7000 236° Southwest  Level FlightAware Approximate